sensor_id;sensor_type;location;lat;lon;timestamp;P1;durP1;ratioP1;P2;durP2;ratioP2
85726;SDS011;76171;45.484;-73.496;2024-02-21T00:00:23;6.85;;;2.17;;
85726;SDS011;76171;45.484;-73.496;2024-02-21T00:02:50;4.60;;;2.33;;
85726;SDS011;76171;45.484;-73.496;2024-02-21T00:05:18;13.40;;;2.80;;
85726;SDS011;76171;45.484;-73.496;2024-02-21T00:07:46;3.05;;;2.20;;
85726;SDS011;76171;45.484;-73.496;2024-02-21T00:10:12;4.35;;;2.05;;
85726;SDS011;76171;45.484;-73.496;2024-02-21T00:12:41;9.43;;;2.97;;
85726;SDS011;76171;45.484;-73.496;2024-02-21T00:15:14;3.95;;;1.95;;
85726;SDS011;76171;45.484;-73.496;2024-02-21T00:17:43;5.60;;;1.83;;
85726;SDS011;76171;45.484;-73.496;2024-02-21T00:20:09;10.93;;;2.65;;
85726;SDS011;76171;45.484;-73.496;2024-02-21T00:22:38;8.45;;;3.50;;
85726;SDS011;76171;45.484;-73.496;2024-02-21T00:25:06;10.35;;;2.75;;
85726;SDS011;76171;45.484;-73.496;2024-02-21T00:27:35;4.35;;;2.35;;
85726;SDS011;76171;45.484;-73.496;2024-02-21T00:30:04;6.10;;;1.80;;
85726;SDS011;76171;45.484;-73.496;2024-02-21T00:32:31;4.13;;;2.22;;
85726;SDS011;76171;45.484;-73.496;2024-02-21T00:35:02;6.22;;;2.75;;
85726;SDS011;76171;45.484;-73.496;2024-02-21T00:37:30;7.72;;;2.53;;
85726;SDS011;76171;45.484;-73.496;2024-02-21T00:39:59;5.40;;;2.00;;
85726;SDS011;76171;45.484;-73.496;2024-02-21T00:42:32;6.15;;;2.67;;
85726;SDS011;76171;45.484;-73.496;2024-02-21T00:45:01;3.42;;;2.08;;
85726;SDS011;76171;45.484;-73.496;2024-02-21T00:47:30;6.53;;;2.58;;
85726;SDS011;76171;45.484;-73.496;2024-02-21T00:49:56;2.92;;;1.55;;
85726;SDS011;76171;45.484;-73.496;2024-02-21T00:52:22;8.65;;;2.38;;
85726;SDS011;76171;45.484;-73.496;2024-02-21T00:54:48;16.23;;;2.28;;
85726;SDS011;76171;45.484;-73.496;2024-02-21T00:57:18;6.90;;;2.15;;
85726;SDS011;76171;45.484;-73.496;2024-02-21T00:59:44;5.90;;;2.60;;
85726;SDS011;76171;45.484;-73.496;2024-02-21T01:02:15;9.15;;;2.50;;
85726;SDS011;76171;45.484;-73.496;2024-02-21T01:04:41;5.85;;;2.03;;
85726;SDS011;76171;45.484;-73.496;2024-02-21T01:07:07;9.15;;;3.30;;
85726;SDS011;76171;45.484;-73.496;2024-02-21T01:12:04;4.20;;;1.63;;
85726;SDS011;76171;45.484;-73.496;2024-02-21T01:14:33;5.85;;;2.35;;
85726;SDS011;76171;45.484;-73.496;2024-02-21T01:17:04;3.63;;;2.03;;
85726;SDS011;76171;45.484;-73.496;2024-02-21T01:19:31;9.90;;;2.58;;
85726;SDS011;76171;45.484;-73.496;2024-02-21T01:21:59;2.72;;;1.13;;
85726;SDS011;76171;45.484;-73.496;2024-02-21T01:24:31;10.10;;;2.67;;
85726;SDS011;76171;45.484;-73.496;2024-02-21T01:27:02;6.13;;;2.50;;
85726;SDS011;76171;45.484;-73.496;2024-02-21T01:29:33;4.10;;;2.03;;
85726;SDS011;76171;45.484;-73.496;2024-02-21T01:31:59;7.05;;;2.35;;
85726;SDS011;76171;45.484;-73.496;2024-02-21T01:34:27;4.60;;;2.47;;
85726;SDS011;76171;45.484;-73.496;2024-02-21T01:39:22;2.90;;;1.77;;
85726;SDS011;76171;45.484;-73.496;2024-02-21T01:44:18;3.63;;;1.55;;
85726;SDS011;76171;45.484;-73.496;2024-02-21T01:46:47;6.80;;;2.10;;
85726;SDS011;76171;45.484;-73.496;2024-02-21T01:49:16;5.90;;;2.67;;
85726;SDS011;76171;45.484;-73.496;2024-02-21T01:51:45;11.82;;;2.95;;
85726;SDS011;76171;45.484;-73.496;2024-02-21T01:54:17;5.43;;;2.70;;
85726;SDS011;76171;45.484;-73.496;2024-02-21T01:56:48;7.18;;;2.13;;
85726;SDS011;76171;45.484;-73.496;2024-02-21T01:59:18;8.07;;;2.80;;
85726;SDS011;76171;45.484;-73.496;2024-02-21T02:01:44;3.33;;;2.35;;
85726;SDS011;76171;45.484;-73.496;2024-02-21T02:04:15;4.50;;;2.75;;
85726;SDS011;76171;45.484;-73.496;2024-02-21T02:06:43;9.70;;;3.22;;
85726;SDS011;76171;45.484;-73.496;2024-02-21T02:09:14;6.65;;;2.55;;
85726;SDS011;76171;45.484;-73.496;2024-02-21T02:11:40;7.15;;;2.50;;
85726;SDS011;76171;45.484;-73.496;2024-02-21T02:16:37;3.78;;;1.58;;
85726;SDS011;76171;45.484;-73.496;2024-02-21T02:21:40;2.15;;;1.77;;
85726;SDS011;76171;45.484;-73.496;2024-02-21T02:24:13;3.80;;;1.90;;
85726;SDS011;76171;45.484;-73.496;2024-02-21T02:26:41;4.03;;;2.50;;
85726;SDS011;76171;45.484;-73.496;2024-02-21T02:29:13;5.65;;;2.17;;
85726;SDS011;76171;45.484;-73.496;2024-02-21T02:31:42;4.90;;;1.77;;
85726;SDS011;76171;45.484;-73.496;2024-02-21T02:34:12;5.47;;;2.45;;
85726;SDS011;76171;45.484;-73.496;2024-02-21T02:36:40;7.65;;;2.28;;
85726;SDS011;76171;45.484;-73.496;2024-02-21T02:39:09;7.25;;;2.60;;
85726;SDS011;76171;45.484;-73.496;2024-02-21T02:41:39;6.95;;;3.05;;
85726;SDS011;76171;45.484;-73.496;2024-02-21T02:44:10;11.02;;;3.38;;
85726;SDS011;76171;45.484;-73.496;2024-02-21T02:46:47;6.80;;;3.63;;
85726;SDS011;76171;45.484;-73.496;2024-02-21T02:49:17;5.68;;;3.05;;
85726;SDS011;76171;45.484;-73.496;2024-02-21T02:51:46;7.82;;;3.72;;
85726;SDS011;76171;45.484;-73.496;2024-02-21T02:54:12;8.60;;;3.67;;
85726;SDS011;76171;45.484;-73.496;2024-02-21T02:56:43;8.18;;;3.65;;
85726;SDS011;76171;45.484;-73.496;2024-02-21T02:59:09;8.25;;;3.25;;
85726;SDS011;76171;45.484;-73.496;2024-02-21T03:01:35;6.53;;;3.95;;
85726;SDS011;76171;45.484;-73.496;2024-02-21T03:04:06;8.48;;;3.67;;
85726;SDS011;76171;45.484;-73.496;2024-02-21T03:06:34;11.18;;;3.65;;
85726;SDS011;76171;45.484;-73.496;2024-02-21T03:09:03;11.88;;;3.83;;
85726;SDS011;76171;45.484;-73.496;2024-02-21T03:11:36;8.85;;;3.60;;
85726;SDS011;76171;45.484;-73.496;2024-02-21T03:14:06;13.52;;;3.25;;
85726;SDS011;76171;45.484;-73.496;2024-02-21T03:16:32;8.55;;;3.08;;
85726;SDS011;76171;45.484;-73.496;2024-02-21T03:18:58;7.13;;;3.47;;
85726;SDS011;76171;45.484;-73.496;2024-02-21T03:21:26;10.88;;;3.95;;
85726;SDS011;76171;45.484;-73.496;2024-02-21T03:23:52;6.75;;;3.35;;
85726;SDS011;76171;45.484;-73.496;2024-02-21T03:26:20;13.95;;;4.97;;
85726;SDS011;76171;45.484;-73.496;2024-02-21T03:28:46;14.43;;;3.35;;
85726;SDS011;76171;45.484;-73.496;2024-02-21T03:31:18;13.13;;;4.82;;
85726;SDS011;76171;45.484;-73.496;2024-02-21T03:33:51;5.75;;;3.47;;
85726;SDS011;76171;45.484;-73.496;2024-02-21T03:36:17;6.80;;;2.88;;
85726;SDS011;76171;45.484;-73.496;2024-02-21T03:38:48;9.00;;;3.28;;
85726;SDS011;76171;45.484;-73.496;2024-02-21T03:41:17;6.55;;;2.45;;
85726;SDS011;76171;45.484;-73.496;2024-02-21T03:43:45;8.52;;;3.78;;
85726;SDS011;76171;45.484;-73.496;2024-02-21T03:46:11;9.82;;;3.08;;
85726;SDS011;76171;45.484;-73.496;2024-02-21T03:48:37;9.20;;;3.70;;
85726;SDS011;76171;45.484;-73.496;2024-02-21T03:51:03;6.85;;;2.85;;
85726;SDS011;76171;45.484;-73.496;2024-02-21T03:53:32;3.53;;;2.28;;
85726;SDS011;76171;45.484;-73.496;2024-02-21T03:56:00;7.72;;;2.85;;
85726;SDS011;76171;45.484;-73.496;2024-02-21T03:58:30;3.40;;;2.00;;
85726;SDS011;76171;45.484;-73.496;2024-02-21T04:00:56;6.43;;;2.42;;
85726;SDS011;76171;45.484;-73.496;2024-02-21T04:03:25;3.28;;;1.75;;
85726;SDS011;76171;45.484;-73.496;2024-02-21T04:05:51;6.75;;;2.72;;
85726;SDS011;76171;45.484;-73.496;2024-02-21T04:08:19;5.70;;;1.75;;
85726;SDS011;76171;45.484;-73.496;2024-02-21T04:10:48;7.45;;;2.35;;
85726;SDS011;76171;45.484;-73.496;2024-02-21T04:13:16;9.52;;;2.72;;
85726;SDS011;76171;45.484;-73.496;2024-02-21T04:15:45;3.75;;;2.20;;
85726;SDS011;76171;45.484;-73.496;2024-02-21T04:18:14;6.32;;;2.17;;
85726;SDS011;76171;45.484;-73.496;2024-02-21T04:23:10;3.38;;;2.65;;
85726;SDS011;76171;45.484;-73.496;2024-02-21T04:25:36;6.55;;;2.25;;
85726;SDS011;76171;45.484;-73.496;2024-02-21T04:28:02;5.55;;;2.30;;
85726;SDS011;76171;45.484;-73.496;2024-02-21T04:30:32;5.18;;;2.33;;
85726;SDS011;76171;45.484;-73.496;2024-02-21T04:33:00;4.72;;;2.13;;
85726;SDS011;76171;45.484;-73.496;2024-02-21T04:35:26;5.13;;;1.95;;
85726;SDS011;76171;45.484;-73.496;2024-02-21T04:37:54;3.95;;;1.95;;
85726;SDS011;76171;45.484;-73.496;2024-02-21T04:40:20;10.40;;;2.88;;
85726;SDS011;76171;45.484;-73.496;2024-02-21T04:42:46;16.85;;;3.20;;
85726;SDS011;76171;45.484;-73.496;2024-02-21T04:45:13;8.18;;;3.67;;
85726;SDS011;76171;45.484;-73.496;2024-02-21T04:47:39;9.80;;;2.38;;
85726;SDS011;76171;45.484;-73.496;2024-02-21T04:50:07;4.60;;;2.65;;
85726;SDS011;76171;45.484;-73.496;2024-02-21T04:52:36;6.95;;;2.47;;
85726;SDS011;76171;45.484;-73.496;2024-02-21T04:55:04;3.97;;;2.17;;
85726;SDS011;76171;45.484;-73.496;2024-02-21T04:57:35;7.60;;;3.15;;
85726;SDS011;76171;45.484;-73.496;2024-02-21T05:00:04;17.10;;;2.55;;
85726;SDS011;76171;45.484;-73.496;2024-02-21T05:02:34;9.50;;;3.05;;
85726;SDS011;76171;45.484;-73.496;2024-02-21T05:05:02;12.00;;;3.13;;
85726;SDS011;76171;45.484;-73.496;2024-02-21T05:07:28;7.32;;;3.65;;
85726;SDS011;76171;45.484;-73.496;2024-02-21T05:09:57;8.13;;;3.80;;
85726;SDS011;76171;45.484;-73.496;2024-02-21T05:12:25;6.72;;;2.35;;
85726;SDS011;76171;45.484;-73.496;2024-02-21T05:14:55;9.15;;;2.88;;
85726;SDS011;76171;45.484;-73.496;2024-02-21T05:19:49;13.60;;;1.90;;
85726;SDS011;76171;45.484;-73.496;2024-02-21T05:22:18;3.45;;;2.40;;
85726;SDS011;76171;45.484;-73.496;2024-02-21T05:24:46;4.53;;;2.47;;
85726;SDS011;76171;45.484;-73.496;2024-02-21T05:27:12;6.53;;;2.25;;
85726;SDS011;76171;45.484;-73.496;2024-02-21T05:29:43;5.43;;;2.42;;
85726;SDS011;76171;45.484;-73.496;2024-02-21T05:32:11;4.85;;;2.40;;
85726;SDS011;76171;45.484;-73.496;2024-02-21T05:34:41;5.57;;;2.97;;
85726;SDS011;76171;45.484;-73.496;2024-02-21T05:37:12;3.17;;;1.80;;
85726;SDS011;76171;45.484;-73.496;2024-02-21T05:39:38;4.68;;;2.60;;
85726;SDS011;76171;45.484;-73.496;2024-02-21T05:42:06;9.45;;;2.67;;
85726;SDS011;76171;45.484;-73.496;2024-02-21T05:44:35;3.92;;;2.33;;
85726;SDS011;76171;45.484;-73.496;2024-02-21T05:47:01;7.80;;;3.20;;
85726;SDS011;76171;45.484;-73.496;2024-02-21T05:49:31;8.48;;;2.35;;
85726;SDS011;76171;45.484;-73.496;2024-02-21T05:52:02;5.30;;;2.00;;
85726;SDS011;76171;45.484;-73.496;2024-02-21T05:54:31;8.18;;;2.50;;
85726;SDS011;76171;45.484;-73.496;2024-02-21T05:57:01;5.93;;;2.47;;
85726;SDS011;76171;45.484;-73.496;2024-02-21T05:59:30;4.95;;;2.30;;
85726;SDS011;76171;45.484;-73.496;2024-02-21T06:01:56;12.52;;;3.08;;
85726;SDS011;76171;45.484;-73.496;2024-02-21T06:04:24;11.02;;;3.03;;
85726;SDS011;76171;45.484;-73.496;2024-02-21T06:06:55;11.52;;;2.78;;
85726;SDS011;76171;45.484;-73.496;2024-02-21T06:09:23;3.50;;;1.90;;
85726;SDS011;76171;45.484;-73.496;2024-02-21T06:11:54;5.72;;;2.08;;
85726;SDS011;76171;45.484;-73.496;2024-02-21T06:14:22;7.90;;;2.83;;
85726;SDS011;76171;45.484;-73.496;2024-02-21T06:16:48;4.90;;;2.42;;
85726;SDS011;76171;45.484;-73.496;2024-02-21T06:19:14;4.15;;;2.20;;
85726;SDS011;76171;45.484;-73.496;2024-02-21T06:21:42;8.65;;;2.75;;
85726;SDS011;76171;45.484;-73.496;2024-02-21T06:24:11;2.40;;;1.85;;
85726;SDS011;76171;45.484;-73.496;2024-02-21T06:26:40;6.47;;;2.60;;
85726;SDS011;76171;45.484;-73.496;2024-02-21T06:29:06;5.18;;;2.53;;
85726;SDS011;76171;45.484;-73.496;2024-02-21T06:31:35;7.88;;;3.33;;
85726;SDS011;76171;45.484;-73.496;2024-02-21T06:34:05;4.18;;;2.33;;
85726;SDS011;76171;45.484;-73.496;2024-02-21T06:36:33;4.97;;;2.55;;
85726;SDS011;76171;45.484;-73.496;2024-02-21T06:38:59;4.43;;;1.88;;
85726;SDS011;76171;45.484;-73.496;2024-02-21T06:41:35;4.18;;;1.77;;
85726;SDS011;76171;45.484;-73.496;2024-02-21T06:44:03;3.28;;;1.90;;
85726;SDS011;76171;45.484;-73.496;2024-02-21T06:46:29;4.30;;;2.33;;
85726;SDS011;76171;45.484;-73.496;2024-02-21T06:48:55;6.43;;;3.08;;
85726;SDS011;76171;45.484;-73.496;2024-02-21T06:51:27;4.28;;;2.10;;
85726;SDS011;76171;45.484;-73.496;2024-02-21T06:53:54;6.88;;;3.63;;
85726;SDS011;76171;45.484;-73.496;2024-02-21T06:56:23;5.32;;;2.38;;
85726;SDS011;76171;45.484;-73.496;2024-02-21T06:58:56;3.65;;;2.38;;
85726;SDS011;76171;45.484;-73.496;2024-02-21T07:01:25;7.03;;;2.45;;
85726;SDS011;76171;45.484;-73.496;2024-02-21T07:03:54;5.05;;;2.40;;
85726;SDS011;76171;45.484;-73.496;2024-02-21T07:06:22;4.85;;;2.28;;
85726;SDS011;76171;45.484;-73.496;2024-02-21T07:08:48;4.63;;;2.40;;
85726;SDS011;76171;45.484;-73.496;2024-02-21T07:11:19;5.18;;;2.08;;
85726;SDS011;76171;45.484;-73.496;2024-02-21T07:13:48;5.40;;;1.92;;
85726;SDS011;76171;45.484;-73.496;2024-02-21T07:16:16;4.70;;;2.42;;
85726;SDS011;76171;45.484;-73.496;2024-02-21T07:18:42;3.58;;;2.08;;
85726;SDS011;76171;45.484;-73.496;2024-02-21T07:21:10;5.97;;;1.98;;
85726;SDS011;76171;45.484;-73.496;2024-02-21T07:23:41;3.17;;;1.33;;
85726;SDS011;76171;45.484;-73.496;2024-02-21T07:26:07;5.22;;;2.22;;
85726;SDS011;76171;45.484;-73.496;2024-02-21T07:28:36;3.80;;;1.42;;
85726;SDS011;76171;45.484;-73.496;2024-02-21T07:31:06;2.50;;;1.40;;
85726;SDS011;76171;45.484;-73.496;2024-02-21T07:33:34;6.15;;;2.75;;
85726;SDS011;76171;45.484;-73.496;2024-02-21T07:36:01;3.47;;;1.65;;
85726;SDS011;76171;45.484;-73.496;2024-02-21T07:38:33;5.13;;;2.03;;
85726;SDS011;76171;45.484;-73.496;2024-02-21T07:43:29;1.73;;;1.50;;
85726;SDS011;76171;45.484;-73.496;2024-02-21T07:46:00;2.72;;;1.60;;
85726;SDS011;76171;45.484;-73.496;2024-02-21T07:48:26;3.42;;;2.08;;
85726;SDS011;76171;45.484;-73.496;2024-02-21T07:50:52;3.45;;;2.05;;
85726;SDS011;76171;45.484;-73.496;2024-02-21T07:53:56;4.32;;;1.80;;
85726;SDS011;76171;45.484;-73.496;2024-02-21T07:56:22;6.43;;;2.25;;
85726;SDS011;76171;45.484;-73.496;2024-02-21T07:58:50;6.82;;;1.92;;
85726;SDS011;76171;45.484;-73.496;2024-02-21T08:01:18;2.38;;;1.15;;
85726;SDS011;76171;45.484;-73.496;2024-02-21T08:03:50;2.72;;;1.45;;
85726;SDS011;76171;45.484;-73.496;2024-02-21T08:06:18;3.28;;;1.85;;
85726;SDS011;76171;45.484;-73.496;2024-02-21T08:08:44;4.32;;;2.17;;
85726;SDS011;76171;45.484;-73.496;2024-02-21T08:11:10;1.83;;;1.40;;
85726;SDS011;76171;45.484;-73.496;2024-02-21T08:13:38;4.38;;;2.10;;
85726;SDS011;76171;45.484;-73.496;2024-02-21T08:16:12;3.95;;;1.63;;
85726;SDS011;76171;45.484;-73.496;2024-02-21T08:18:40;5.15;;;2.40;;
85726;SDS011;76171;45.484;-73.496;2024-02-21T08:21:11;4.55;;;1.90;;
85726;SDS011;76171;45.484;-73.496;2024-02-21T08:23:40;4.15;;;1.88;;
85726;SDS011;76171;45.484;-73.496;2024-02-21T08:26:08;9.10;;;1.55;;
85726;SDS011;76171;45.484;-73.496;2024-02-21T08:28:34;2.47;;;1.77;;
85726;SDS011;76171;45.484;-73.496;2024-02-21T08:31:00;3.08;;;1.73;;
85726;SDS011;76171;45.484;-73.496;2024-02-21T08:33:26;3.50;;;1.85;;
85726;SDS011;76171;45.484;-73.496;2024-02-21T08:35:57;4.82;;;3.25;;
85726;SDS011;76171;45.484;-73.496;2024-02-21T08:38:28;4.30;;;1.92;;
85726;SDS011;76171;45.484;-73.496;2024-02-21T08:40:59;5.85;;;2.55;;
85726;SDS011;76171;45.484;-73.496;2024-02-21T08:43:30;4.07;;;3.10;;
85726;SDS011;76171;45.484;-73.496;2024-02-21T08:45:58;4.18;;;1.85;;
85726;SDS011;76171;45.484;-73.496;2024-02-21T08:48:26;4.18;;;1.90;;
85726;SDS011;76171;45.484;-73.496;2024-02-21T08:50:52;3.97;;;1.55;;
85726;SDS011;76171;45.484;-73.496;2024-02-21T08:53:19;6.63;;;2.22;;
85726;SDS011;76171;45.484;-73.496;2024-02-21T08:55:46;2.50;;;1.65;;
85726;SDS011;76171;45.484;-73.496;2024-02-21T08:58:14;8.73;;;2.17;;
85726;SDS011;76171;45.484;-73.496;2024-02-21T09:00:42;7.97;;;2.53;;
85726;SDS011;76171;45.484;-73.496;2024-02-21T09:03:11;3.97;;;1.20;;
85726;SDS011;76171;45.484;-73.496;2024-02-21T09:05:39;4.28;;;2.25;;
85726;SDS011;76171;45.484;-73.496;2024-02-21T09:08:05;14.23;;;2.42;;
85726;SDS011;76171;45.484;-73.496;2024-02-21T09:10:34;3.05;;;1.90;;
85726;SDS011;76171;45.484;-73.496;2024-02-21T09:13:02;4.00;;;1.48;;
85726;SDS011;76171;45.484;-73.496;2024-02-21T09:15:33;2.70;;;1.90;;
85726;SDS011;76171;45.484;-73.496;2024-02-21T09:18:03;2.97;;;1.60;;
85726;SDS011;76171;45.484;-73.496;2024-02-21T09:20:31;3.80;;;2.17;;
85726;SDS011;76171;45.484;-73.496;2024-02-21T09:23:00;3.75;;;1.88;;
85726;SDS011;76171;45.484;-73.496;2024-02-21T09:25:28;2.38;;;1.35;;
85726;SDS011;76171;45.484;-73.496;2024-02-21T09:27:54;3.85;;;1.77;;
85726;SDS011;76171;45.484;-73.496;2024-02-21T09:30:20;1.98;;;1.65;;
85726;SDS011;76171;45.484;-73.496;2024-02-21T09:32:49;4.43;;;2.63;;
85726;SDS011;76171;45.484;-73.496;2024-02-21T09:35:15;4.13;;;1.85;;
85726;SDS011;76171;45.484;-73.496;2024-02-21T09:37:41;3.53;;;1.63;;
85726;SDS011;76171;45.484;-73.496;2024-02-21T09:40:10;7.28;;;1.83;;
85726;SDS011;76171;45.484;-73.496;2024-02-21T09:42:39;6.60;;;2.75;;
85726;SDS011;76171;45.484;-73.496;2024-02-21T09:45:27;3.53;;;1.77;;
85726;SDS011;76171;45.484;-73.496;2024-02-21T09:50:52;4.82;;;2.17;;
85726;SDS011;76171;45.484;-73.496;2024-02-21T09:53:18;2.88;;;1.60;;
85726;SDS011;76171;45.484;-73.496;2024-02-21T09:55:45;2.30;;;1.48;;
85726;SDS011;76171;45.484;-73.496;2024-02-21T09:58:12;4.03;;;1.17;;
85726;SDS011;76171;45.484;-73.496;2024-02-21T10:00:38;2.17;;;1.63;;
85726;SDS011;76171;45.484;-73.496;2024-02-21T10:03:04;3.15;;;2.03;;
85726;SDS011;76171;45.484;-73.496;2024-02-21T10:05:35;3.53;;;1.60;;
85726;SDS011;76171;45.484;-73.496;2024-02-21T10:08:02;1.60;;;1.00;;
85726;SDS011;76171;45.484;-73.496;2024-02-21T10:10:29;2.60;;;1.73;;
85726;SDS011;76171;45.484;-73.496;2024-02-21T10:12:55;6.57;;;1.70;;
85726;SDS011;76171;45.484;-73.496;2024-02-21T10:15:25;2.80;;;1.45;;
85726;SDS011;76171;45.484;-73.496;2024-02-21T10:18:00;2.92;;;1.98;;
85726;SDS011;76171;45.484;-73.496;2024-02-21T10:20:29;2.75;;;1.15;;
85726;SDS011;76171;45.484;-73.496;2024-02-21T10:23:04;1.75;;;1.42;;
85726;SDS011;76171;45.484;-73.496;2024-02-21T10:25:34;1.52;;;1.40;;
85726;SDS011;76171;45.484;-73.496;2024-02-21T10:28:03;5.63;;;2.03;;
85726;SDS011;76171;45.484;-73.496;2024-02-21T10:30:32;1.98;;;1.20;;
85726;SDS011;76171;45.484;-73.496;2024-02-21T10:32:58;4.95;;;2.33;;
85726;SDS011;76171;45.484;-73.496;2024-02-21T10:35:29;2.17;;;1.45;;
85726;SDS011;76171;45.484;-73.496;2024-02-21T10:37:59;4.30;;;2.72;;
85726;SDS011;76171;45.484;-73.496;2024-02-21T10:40:29;2.28;;;1.45;;
85726;SDS011;76171;45.484;-73.496;2024-02-21T10:42:59;11.85;;;2.42;;
85726;SDS011;76171;45.484;-73.496;2024-02-21T10:45:35;8.35;;;1.77;;
85726;SDS011;76171;45.484;-73.496;2024-02-21T10:48:13;3.05;;;1.52;;
85726;SDS011;76171;45.484;-73.496;2024-02-21T10:51:02;1.48;;;1.33;;
85726;SDS011;76171;45.484;-73.496;2024-02-21T10:58:53;4.35;;;1.15;;
85726;SDS011;76171;45.484;-73.496;2024-02-21T11:01:22;3.88;;;1.52;;
85726;SDS011;76171;45.484;-73.496;2024-02-21T11:03:49;4.47;;;2.20;;
85726;SDS011;76171;45.484;-73.496;2024-02-21T11:06:18;3.58;;;2.22;;
85726;SDS011;76171;45.484;-73.496;2024-02-21T11:08:45;2.67;;;1.50;;
85726;SDS011;76171;45.484;-73.496;2024-02-21T11:11:14;2.53;;;2.13;;
85726;SDS011;76171;45.484;-73.496;2024-02-21T11:13:45;4.32;;;1.75;;
85726;SDS011;76171;45.484;-73.496;2024-02-21T11:16:22;1.02;;;0.80;;
85726;SDS011;76171;45.484;-73.496;2024-02-21T11:18:48;1.50;;;1.02;;
85726;SDS011;76171;45.484;-73.496;2024-02-21T11:21:16;3.10;;;1.20;;
85726;SDS011;76171;45.484;-73.496;2024-02-21T11:23:54;3.38;;;2.20;;
85726;SDS011;76171;45.484;-73.496;2024-02-21T11:26:23;2.90;;;1.92;;
85726;SDS011;76171;45.484;-73.496;2024-02-21T11:29:02;3.58;;;1.20;;
85726;SDS011;76171;45.484;-73.496;2024-02-21T11:31:41;9.95;;;0.65;;
85726;SDS011;76171;45.484;-73.496;2024-02-21T11:34:08;6.43;;;1.85;;
85726;SDS011;76171;45.484;-73.496;2024-02-21T11:36:49;1.63;;;1.33;;
85726;SDS011;76171;45.484;-73.496;2024-02-21T11:39:23;10.10;;;1.48;;
85726;SDS011;76171;45.484;-73.496;2024-02-21T11:42:03;2.25;;;1.88;;
85726;SDS011;76171;45.484;-73.496;2024-02-21T11:44:33;4.47;;;1.92;;
85726;SDS011;76171;45.484;-73.496;2024-02-21T11:47:08;0.82;;;0.73;;
85726;SDS011;76171;45.484;-73.496;2024-02-21T11:52:08;5.05;;;1.33;;
85726;SDS011;76171;45.484;-73.496;2024-02-21T11:54:34;2.00;;;1.65;;
85726;SDS011;76171;45.484;-73.496;2024-02-21T11:57:00;1.25;;;1.15;;
85726;SDS011;76171;45.484;-73.496;2024-02-21T11:59:29;3.60;;;1.40;;
85726;SDS011;76171;45.484;-73.496;2024-02-21T12:01:59;1.80;;;1.30;;
85726;SDS011;76171;45.484;-73.496;2024-02-21T12:04:26;1.00;;;0.82;;
85726;SDS011;76171;45.484;-73.496;2024-02-21T12:06:52;1.98;;;1.42;;
85726;SDS011;76171;45.484;-73.496;2024-02-21T12:09:22;5.20;;;1.20;;
85726;SDS011;76171;45.484;-73.496;2024-02-21T12:11:56;1.33;;;0.90;;
85726;SDS011;76171;45.484;-73.496;2024-02-21T12:14:34;2.63;;;1.27;;
85726;SDS011;76171;45.484;-73.496;2024-02-21T12:17:01;1.80;;;1.50;;
85726;SDS011;76171;45.484;-73.496;2024-02-21T12:19:33;2.13;;;1.42;;
85726;SDS011;76171;45.484;-73.496;2024-02-21T12:21:59;2.97;;;1.88;;
85726;SDS011;76171;45.484;-73.496;2024-02-21T12:24:26;2.42;;;1.60;;
85726;SDS011;76171;45.484;-73.496;2024-02-21T12:26:53;1.90;;;1.20;;
85726;SDS011;76171;45.484;-73.496;2024-02-21T12:29:24;1.63;;;0.68;;
85726;SDS011;76171;45.484;-73.496;2024-02-21T12:31:52;11.85;;;2.13;;
85726;SDS011;76171;45.484;-73.496;2024-02-21T12:34:21;1.58;;;1.33;;
85726;SDS011;76171;45.484;-73.496;2024-02-21T12:36:52;1.75;;;1.10;;
85726;SDS011;76171;45.484;-73.496;2024-02-21T12:39:20;3.92;;;1.45;;
85726;SDS011;76171;45.484;-73.496;2024-02-21T12:41:48;3.17;;;2.08;;
85726;SDS011;76171;45.484;-73.496;2024-02-21T12:44:17;4.55;;;1.95;;
85726;SDS011;76171;45.484;-73.496;2024-02-21T12:46:43;3.45;;;1.60;;
85726;SDS011;76171;45.484;-73.496;2024-02-21T12:49:10;3.33;;;1.25;;
85726;SDS011;76171;45.484;-73.496;2024-02-21T12:51:38;3.17;;;2.03;;
85726;SDS011;76171;45.484;-73.496;2024-02-21T12:54:07;3.08;;;1.38;;
85726;SDS011;76171;45.484;-73.496;2024-02-21T12:56:36;3.40;;;0.47;;
85726;SDS011;76171;45.484;-73.496;2024-02-21T12:59:03;3.75;;;2.00;;
85726;SDS011;76171;45.484;-73.496;2024-02-21T13:01:35;4.35;;;0.82;;
85726;SDS011;76171;45.484;-73.496;2024-02-21T13:06:28;1.55;;;0.80;;
85726;SDS011;76171;45.484;-73.496;2024-02-21T13:09:00;1.38;;;0.82;;
85726;SDS011;76171;45.484;-73.496;2024-02-21T13:11:29;14.85;;;2.65;;
85726;SDS011;76171;45.484;-73.496;2024-02-21T13:14:00;3.47;;;1.90;;
85726;SDS011;76171;45.484;-73.496;2024-02-21T13:16:26;11.45;;;1.60;;
85726;SDS011;76171;45.484;-73.496;2024-02-21T13:18:52;2.10;;;1.50;;
85726;SDS011;76171;45.484;-73.496;2024-02-21T13:21:20;2.35;;;1.70;;
85726;SDS011;76171;45.484;-73.496;2024-02-21T13:23:51;2.80;;;1.58;;
85726;SDS011;76171;45.484;-73.496;2024-02-21T13:26:17;3.80;;;1.90;;
85726;SDS011;76171;45.484;-73.496;2024-02-21T13:28:45;7.38;;;2.00;;
85726;SDS011;76171;45.484;-73.496;2024-02-21T13:31:13;3.47;;;2.22;;
85726;SDS011;76171;45.484;-73.496;2024-02-21T13:33:42;8.63;;;2.38;;
85726;SDS011;76171;45.484;-73.496;2024-02-21T13:36:11;4.10;;;1.55;;
85726;SDS011;76171;45.484;-73.496;2024-02-21T13:38:40;2.03;;;1.05;;
85726;SDS011;76171;45.484;-73.496;2024-02-21T13:41:08;4.38;;;2.67;;
85726;SDS011;76171;45.484;-73.496;2024-02-21T13:43:38;7.00;;;2.30;;
85726;SDS011;76171;45.484;-73.496;2024-02-21T13:46:04;3.20;;;1.70;;
85726;SDS011;76171;45.484;-73.496;2024-02-21T13:48:35;4.18;;;1.98;;
85726;SDS011;76171;45.484;-73.496;2024-02-21T13:51:01;2.83;;;1.60;;
85726;SDS011;76171;45.484;-73.496;2024-02-21T13:53:30;5.78;;;2.55;;
85726;SDS011;76171;45.484;-73.496;2024-02-21T13:55:58;6.32;;;2.08;;
85726;SDS011;76171;45.484;-73.496;2024-02-21T13:58:26;5.18;;;2.47;;
85726;SDS011;76171;45.484;-73.496;2024-02-21T14:00:54;7.70;;;2.58;;
85726;SDS011;76171;45.484;-73.496;2024-02-21T14:03:25;8.20;;;2.78;;
85726;SDS011;76171;45.484;-73.496;2024-02-21T14:05:51;7.45;;;3.08;;
85726;SDS011;76171;45.484;-73.496;2024-02-21T14:08:20;8.63;;;2.33;;
85726;SDS011;76171;45.484;-73.496;2024-02-21T14:10:49;4.25;;;2.28;;
85726;SDS011;76171;45.484;-73.496;2024-02-21T14:13:18;3.33;;;1.98;;
85726;SDS011;76171;45.484;-73.496;2024-02-21T14:15:44;8.70;;;2.72;;
85726;SDS011;76171;45.484;-73.496;2024-02-21T14:18:15;7.53;;;2.88;;
85726;SDS011;76171;45.484;-73.496;2024-02-21T14:20:41;7.32;;;2.58;;
85726;SDS011;76171;45.484;-73.496;2024-02-21T14:23:08;8.90;;;2.30;;
85726;SDS011;76171;45.484;-73.496;2024-02-21T14:25:34;7.30;;;2.47;;
85726;SDS011;76171;45.484;-73.496;2024-02-21T14:28:04;6.97;;;2.78;;
85726;SDS011;76171;45.484;-73.496;2024-02-21T14:30:36;10.27;;;2.53;;
85726;SDS011;76171;45.484;-73.496;2024-02-21T14:35:28;7.00;;;2.15;;
85726;SDS011;76171;45.484;-73.496;2024-02-21T14:37:54;7.88;;;3.00;;
85726;SDS011;76171;45.484;-73.496;2024-02-21T14:40:26;16.10;;;2.90;;
85726;SDS011;76171;45.484;-73.496;2024-02-21T14:42:57;12.48;;;3.25;;
85726;SDS011;76171;45.484;-73.496;2024-02-21T14:45:26;6.55;;;3.42;;
85726;SDS011;76171;45.484;-73.496;2024-02-21T14:47:52;9.63;;;3.53;;
85726;SDS011;76171;45.484;-73.496;2024-02-21T14:52:46;10.80;;;2.90;;
85726;SDS011;76171;45.484;-73.496;2024-02-21T14:55:13;8.50;;;2.75;;
85726;SDS011;76171;45.484;-73.496;2024-02-21T14:57:41;11.93;;;3.05;;
85726;SDS011;76171;45.484;-73.496;2024-02-21T15:00:12;14.38;;;2.97;;
85726;SDS011;76171;45.484;-73.496;2024-02-21T15:02:41;11.00;;;3.05;;
85726;SDS011;76171;45.484;-73.496;2024-02-21T15:05:08;10.15;;;2.55;;
85726;SDS011;76171;45.484;-73.496;2024-02-21T15:07:35;6.47;;;2.55;;